sensor_id;sensor_type;location;lat;lon;timestamp;P1;durP1;ratioP1;P2;durP2;ratioP2
32932;SDS011;19444;50.518;10.870;2023-03-13T00:00:43;14.48;;;6.25;;
32932;SDS011;19444;50.518;10.870;2023-03-13T00:03:40;16.23;;;5.95;;
32932;SDS011;19444;50.518;10.870;2023-03-13T00:06:37;16.15;;;5.88;;
32932;SDS011;19444;50.518;10.870;2023-03-13T00:09:35;13.85;;;3.92;;
32932;SDS011;19444;50.518;10.870;2023-03-13T00:12:31;14.68;;;4.78;;
32932;SDS011;19444;50.518;10.870;2023-03-13T00:15:28;20.45;;;6.95;;
32932;SDS011;19444;50.518;10.870;2023-03-13T00:18:25;22.00;;;6.93;;
32932;SDS011;19444;50.518;10.870;2023-03-13T00:21:23;15.50;;;5.75;;
32932;SDS011;19444;50.518;10.870;2023-03-13T00:24:23;13.45;;;4.75;;
32932;SDS011;19444;50.518;10.870;2023-03-13T00:27:20;16.55;;;4.78;;
32932;SDS011;19444;50.518;10.870;2023-03-13T00:30:17;21.17;;;5.70;;
32932;SDS011;19444;50.518;10.870;2023-03-13T00:33:13;12.13;;;4.55;;
32932;SDS011;19444;50.518;10.870;2023-03-13T00:36:11;13.93;;;4.22;;
32932;SDS011;19444;50.518;10.870;2023-03-13T00:39:11;16.50;;;4.40;;
32932;SDS011;19444;50.518;10.870;2023-03-13T00:42:08;14.27;;;4.55;;
32932;SDS011;19444;50.518;10.870;2023-03-13T00:45:05;9.40;;;3.78;;
32932;SDS011;19444;50.518;10.870;2023-03-13T00:48:02;17.33;;;5.03;;
32932;SDS011;19444;50.518;10.870;2023-03-13T00:51:00;18.65;;;5.00;;
32932;SDS011;19444;50.518;10.870;2023-03-13T00:53:58;17.33;;;4.20;;
32932;SDS011;19444;50.518;10.870;2023-03-13T00:56:56;15.15;;;5.30;;
32932;SDS011;19444;50.518;10.870;2023-03-13T00:59:52;18.92;;;3.72;;
32932;SDS011;19444;50.518;10.870;2023-03-13T01:02:49;24.23;;;5.10;;
32932;SDS011;19444;50.518;10.870;2023-03-13T01:06:00;16.17;;;4.45;;
32932;SDS011;19444;50.518;10.870;2023-03-13T01:08:59;14.65;;;4.60;;
32932;SDS011;19444;50.518;10.870;2023-03-13T01:11:56;17.25;;;4.72;;
32932;SDS011;19444;50.518;10.870;2023-03-13T01:14:53;14.65;;;4.53;;
32932;SDS011;19444;50.518;10.870;2023-03-13T01:17:50;25.05;;;4.63;;
32932;SDS011;19444;50.518;10.870;2023-03-13T01:20:47;18.88;;;6.75;;
32932;SDS011;19444;50.518;10.870;2023-03-13T01:23:44;13.75;;;3.80;;
32932;SDS011;19444;50.518;10.870;2023-03-13T01:26:41;20.85;;;4.72;;
32932;SDS011;19444;50.518;10.870;2023-03-13T01:29:38;17.00;;;3.65;;
32932;SDS011;19444;50.518;10.870;2023-03-13T01:32:35;21.10;;;4.80;;
32932;SDS011;19444;50.518;10.870;2023-03-13T01:35:32;19.02;;;5.05;;
32932;SDS011;19444;50.518;10.870;2023-03-13T01:38:29;16.50;;;4.93;;
32932;SDS011;19444;50.518;10.870;2023-03-13T01:41:27;14.93;;;5.97;;
32932;SDS011;19444;50.518;10.870;2023-03-13T01:44:26;12.50;;;5.10;;
32932;SDS011;19444;50.518;10.870;2023-03-13T01:47:23;11.32;;;4.22;;
32932;SDS011;19444;50.518;10.870;2023-03-13T01:50:20;15.10;;;4.22;;
32932;SDS011;19444;50.518;10.870;2023-03-13T01:53:17;17.20;;;4.60;;
32932;SDS011;19444;50.518;10.870;2023-03-13T01:56:16;20.95;;;4.38;;
32932;SDS011;19444;50.518;10.870;2023-03-13T01:59:31;18.13;;;4.50;;
32932;SDS011;19444;50.518;10.870;2023-03-13T02:02:37;15.98;;;3.30;;
32932;SDS011;19444;50.518;10.870;2023-03-13T02:05:37;17.85;;;4.25;;
32932;SDS011;19444;50.518;10.870;2023-03-13T02:08:39;14.75;;;3.10;;
32932;SDS011;19444;50.518;10.870;2023-03-13T02:11:48;15.00;;;3.28;;
32932;SDS011;19444;50.518;10.870;2023-03-13T02:14:58;12.65;;;2.65;;
32932;SDS011;19444;50.518;10.870;2023-03-13T02:18:01;15.45;;;3.25;;
32932;SDS011;19444;50.518;10.870;2023-03-13T02:21:06;14.32;;;4.35;;
32932;SDS011;19444;50.518;10.870;2023-03-13T02:24:13;14.05;;;2.92;;
32932;SDS011;19444;50.518;10.870;2023-03-13T02:27:27;14.57;;;2.80;;
32932;SDS011;19444;50.518;10.870;2023-03-13T02:30:24;14.40;;;2.92;;
32932;SDS011;19444;50.518;10.870;2023-03-13T02:33:22;13.88;;;3.75;;
32932;SDS011;19444;50.518;10.870;2023-03-13T02:36:24;14.32;;;2.60;;
32932;SDS011;19444;50.518;10.870;2023-03-13T02:39:22;11.63;;;2.60;;
32932;SDS011;19444;50.518;10.870;2023-03-13T02:42:20;15.30;;;3.22;;
32932;SDS011;19444;50.518;10.870;2023-03-13T02:45:18;17.02;;;3.17;;
32932;SDS011;19444;50.518;10.870;2023-03-13T02:48:15;12.80;;;2.92;;
32932;SDS011;19444;50.518;10.870;2023-03-13T02:54:24;9.73;;;2.67;;
32932;SDS011;19444;50.518;10.870;2023-03-13T02:57:28;12.98;;;2.70;;
32932;SDS011;19444;50.518;10.870;2023-03-13T03:00:24;13.65;;;2.70;;
32932;SDS011;19444;50.518;10.870;2023-03-13T03:03:22;14.02;;;3.42;;
32932;SDS011;19444;50.518;10.870;2023-03-13T03:06:19;16.90;;;3.35;;
32932;SDS011;19444;50.518;10.870;2023-03-13T03:09:16;15.65;;;2.95;;
32932;SDS011;19444;50.518;10.870;2023-03-13T03:12:15;10.80;;;3.22;;
32932;SDS011;19444;50.518;10.870;2023-03-13T03:15:12;14.18;;;2.60;;
32932;SDS011;19444;50.518;10.870;2023-03-13T03:18:09;19.20;;;3.55;;
32932;SDS011;19444;50.518;10.870;2023-03-13T03:21:06;13.18;;;3.35;;
32932;SDS011;19444;50.518;10.870;2023-03-13T03:24:03;10.50;;;2.65;;
32932;SDS011;19444;50.518;10.870;2023-03-13T03:27:00;9.18;;;2.20;;
32932;SDS011;19444;50.518;10.870;2023-03-13T03:29:57;12.25;;;2.53;;
32932;SDS011;19444;50.518;10.870;2023-03-13T03:32:54;12.48;;;3.70;;
32932;SDS011;19444;50.518;10.870;2023-03-13T03:35:51;13.00;;;2.58;;
32932;SDS011;19444;50.518;10.870;2023-03-13T03:38:54;9.40;;;2.05;;
32932;SDS011;19444;50.518;10.870;2023-03-13T03:41:50;12.90;;;2.67;;
32932;SDS011;19444;50.518;10.870;2023-03-13T03:44:47;9.00;;;1.95;;
32932;SDS011;19444;50.518;10.870;2023-03-13T03:47:44;8.45;;;2.28;;
32932;SDS011;19444;50.518;10.870;2023-03-13T03:50:41;11.75;;;2.22;;
32932;SDS011;19444;50.518;10.870;2023-03-13T03:53:38;7.38;;;1.92;;
32932;SDS011;19444;50.518;10.870;2023-03-13T03:56:35;15.25;;;3.05;;
32932;SDS011;19444;50.518;10.870;2023-03-13T03:59:32;7.70;;;2.15;;
32932;SDS011;19444;50.518;10.870;2023-03-13T04:02:29;13.40;;;2.72;;
32932;SDS011;19444;50.518;10.870;2023-03-13T04:05:26;4.93;;;1.52;;
32932;SDS011;19444;50.518;10.870;2023-03-13T04:08:22;8.57;;;2.60;;
32932;SDS011;19444;50.518;10.870;2023-03-13T04:11:19;15.23;;;2.75;;
32932;SDS011;19444;50.518;10.870;2023-03-13T04:14:16;11.30;;;2.63;;
32932;SDS011;19444;50.518;10.870;2023-03-13T04:17:13;12.65;;;3.45;;
32932;SDS011;19444;50.518;10.870;2023-03-13T04:20:10;9.75;;;2.78;;
32932;SDS011;19444;50.518;10.870;2023-03-13T04:23:09;11.48;;;2.22;;
32932;SDS011;19444;50.518;10.870;2023-03-13T04:26:06;7.60;;;2.35;;
32932;SDS011;19444;50.518;10.870;2023-03-13T04:29:03;11.57;;;2.90;;
32932;SDS011;19444;50.518;10.870;2023-03-13T04:32:01;9.65;;;2.45;;
32932;SDS011;19444;50.518;10.870;2023-03-13T04:34:58;13.10;;;2.92;;
32932;SDS011;19444;50.518;10.870;2023-03-13T04:37:55;12.50;;;3.17;;
32932;SDS011;19444;50.518;10.870;2023-03-13T04:40:52;14.38;;;3.97;;
32932;SDS011;19444;50.518;10.870;2023-03-13T04:43:48;10.75;;;2.50;;
32932;SDS011;19444;50.518;10.870;2023-03-13T04:46:45;7.75;;;2.13;;
32932;SDS011;19444;50.518;10.870;2023-03-13T04:49:42;13.75;;;3.13;;
32932;SDS011;19444;50.518;10.870;2023-03-13T04:52:39;12.20;;;2.13;;
32932;SDS011;19444;50.518;10.870;2023-03-13T04:55:36;12.40;;;2.45;;
32932;SDS011;19444;50.518;10.870;2023-03-13T04:58:33;10.27;;;2.75;;
32932;SDS011;19444;50.518;10.870;2023-03-13T05:01:30;11.13;;;3.08;;
32932;SDS011;19444;50.518;10.870;2023-03-13T05:04:27;16.73;;;4.03;;
32932;SDS011;19444;50.518;10.870;2023-03-13T05:07:24;9.38;;;2.47;;
32932;SDS011;19444;50.518;10.870;2023-03-13T05:10:21;13.35;;;3.78;;
32932;SDS011;19444;50.518;10.870;2023-03-13T05:13:18;12.02;;;3.10;;
32932;SDS011;19444;50.518;10.870;2023-03-13T05:16:14;9.93;;;2.28;;
32932;SDS011;19444;50.518;10.870;2023-03-13T05:19:11;9.65;;;2.55;;
32932;SDS011;19444;50.518;10.870;2023-03-13T05:22:09;10.57;;;2.40;;
32932;SDS011;19444;50.518;10.870;2023-03-13T05:25:06;9.93;;;2.83;;
32932;SDS011;19444;50.518;10.870;2023-03-13T05:28:04;11.77;;;2.65;;
32932;SDS011;19444;50.518;10.870;2023-03-13T05:31:01;10.43;;;2.70;;
32932;SDS011;19444;50.518;10.870;2023-03-13T05:33:58;7.25;;;3.80;;
32932;SDS011;19444;50.518;10.870;2023-03-13T05:36:55;8.45;;;2.50;;
32932;SDS011;19444;50.518;10.870;2023-03-13T05:39:51;5.53;;;2.10;;
32932;SDS011;19444;50.518;10.870;2023-03-13T05:42:48;9.63;;;2.70;;
32932;SDS011;19444;50.518;10.870;2023-03-13T05:45:45;13.15;;;3.70;;
32932;SDS011;19444;50.518;10.870;2023-03-13T05:48:42;9.23;;;2.78;;
32932;SDS011;19444;50.518;10.870;2023-03-13T05:51:40;14.38;;;4.10;;
32932;SDS011;19444;50.518;10.870;2023-03-13T05:54:37;8.63;;;2.90;;
32932;SDS011;19444;50.518;10.870;2023-03-13T05:57:34;13.45;;;3.00;;
32932;SDS011;19444;50.518;10.870;2023-03-13T06:00:31;8.05;;;2.22;;
32932;SDS011;19444;50.518;10.870;2023-03-13T06:03:28;9.82;;;2.33;;
32932;SDS011;19444;50.518;10.870;2023-03-13T06:06:25;7.63;;;2.25;;
32932;SDS011;19444;50.518;10.870;2023-03-13T06:09:22;6.03;;;1.95;;
32932;SDS011;19444;50.518;10.870;2023-03-13T06:12:19;8.02;;;2.65;;
32932;SDS011;19444;50.518;10.870;2023-03-13T06:15:16;10.25;;;3.78;;
32932;SDS011;19444;50.518;10.870;2023-03-13T06:18:12;11.30;;;3.70;;
32932;SDS011;19444;50.518;10.870;2023-03-13T06:21:09;10.35;;;3.47;;
32932;SDS011;19444;50.518;10.870;2023-03-13T06:24:06;5.70;;;3.22;;
32932;SDS011;19444;50.518;10.870;2023-03-13T06:27:03;15.93;;;6.55;;
32932;SDS011;19444;50.518;10.870;2023-03-13T06:30:02;11.40;;;4.57;;
32932;SDS011;19444;50.518;10.870;2023-03-13T06:32:59;12.82;;;6.07;;
32932;SDS011;19444;50.518;10.870;2023-03-13T06:35:56;9.45;;;3.35;;
32932;SDS011;19444;50.518;10.870;2023-03-13T06:38:55;25.27;;;11.10;;
32932;SDS011;19444;50.518;10.870;2023-03-13T06:41:52;13.50;;;5.22;;
32932;SDS011;19444;50.518;10.870;2023-03-13T06:44:49;7.50;;;2.97;;
32932;SDS011;19444;50.518;10.870;2023-03-13T06:47:46;9.68;;;3.72;;
32932;SDS011;19444;50.518;10.870;2023-03-13T06:50:42;9.55;;;4.05;;
32932;SDS011;19444;50.518;10.870;2023-03-13T06:53:39;17.55;;;7.45;;
32932;SDS011;19444;50.518;10.870;2023-03-13T06:56:36;14.68;;;7.22;;
32932;SDS011;19444;50.518;10.870;2023-03-13T06:59:33;13.35;;;5.80;;
32932;SDS011;19444;50.518;10.870;2023-03-13T07:02:30;13.85;;;6.38;;
32932;SDS011;19444;50.518;10.870;2023-03-13T07:05:27;11.88;;;4.30;;
32932;SDS011;19444;50.518;10.870;2023-03-13T07:08:24;7.88;;;2.90;;
32932;SDS011;19444;50.518;10.870;2023-03-13T07:11:21;7.70;;;3.17;;
32932;SDS011;19444;50.518;10.870;2023-03-13T07:14:18;8.65;;;1.98;;
32932;SDS011;19444;50.518;10.870;2023-03-13T07:17:15;5.25;;;1.52;;
32932;SDS011;19444;50.518;10.870;2023-03-13T07:20:12;8.95;;;2.10;;
32932;SDS011;19444;50.518;10.870;2023-03-13T07:23:12;5.70;;;2.22;;
32932;SDS011;19444;50.518;10.870;2023-03-13T07:26:11;3.50;;;1.45;;
32932;SDS011;19444;50.518;10.870;2023-03-13T07:29:10;4.30;;;2.13;;
32932;SDS011;19444;50.518;10.870;2023-03-13T07:32:07;3.40;;;1.83;;
32932;SDS011;19444;50.518;10.870;2023-03-13T07:35:04;4.32;;;1.83;;
32932;SDS011;19444;50.518;10.870;2023-03-13T07:38:02;4.70;;;1.77;;
32932;SDS011;19444;50.518;10.870;2023-03-13T07:40:58;3.35;;;1.67;;
32932;SDS011;19444;50.518;10.870;2023-03-13T07:43:55;4.82;;;2.22;;
32932;SDS011;19444;50.518;10.870;2023-03-13T07:46:52;9.00;;;5.03;;
32932;SDS011;19444;50.518;10.870;2023-03-13T07:49:49;6.35;;;3.10;;
32932;SDS011;19444;50.518;10.870;2023-03-13T07:52:46;14.70;;;7.35;;
32932;SDS011;19444;50.518;10.870;2023-03-13T07:55:43;12.90;;;6.80;;
32932;SDS011;19444;50.518;10.870;2023-03-13T07:58:46;25.85;;;11.68;;
32932;SDS011;19444;50.518;10.870;2023-03-13T08:01:43;10.80;;;5.22;;
32932;SDS011;19444;50.518;10.870;2023-03-13T08:04:40;6.28;;;2.20;;
32932;SDS011;19444;50.518;10.870;2023-03-13T08:07:37;4.35;;;2.15;;
32932;SDS011;19444;50.518;10.870;2023-03-13T08:10:34;2.53;;;1.73;;
32932;SDS011;19444;50.518;10.870;2023-03-13T08:13:38;2.38;;;1.50;;
32932;SDS011;19444;50.518;10.870;2023-03-13T08:16:36;3.63;;;1.20;;
32932;SDS011;19444;50.518;10.870;2023-03-13T08:19:33;4.20;;;1.67;;
32932;SDS011;19444;50.518;10.870;2023-03-13T08:22:30;2.58;;;1.20;;
32932;SDS011;19444;50.518;10.870;2023-03-13T08:25:27;1.90;;;1.05;;
32932;SDS011;19444;50.518;10.870;2023-03-13T08:28:23;1.10;;;0.75;;
32932;SDS011;19444;50.518;10.870;2023-03-13T08:31:24;2.17;;;0.88;;
32932;SDS011;19444;50.518;10.870;2023-03-13T08:34:23;1.80;;;0.68;;
32932;SDS011;19444;50.518;10.870;2023-03-13T08:37:20;1.52;;;1.20;;
32932;SDS011;19444;50.518;10.870;2023-03-13T08:40:17;1.83;;;1.13;;
32932;SDS011;19444;50.518;10.870;2023-03-13T08:43:14;3.33;;;1.90;;
32932;SDS011;19444;50.518;10.870;2023-03-13T08:46:11;2.75;;;0.90;;
32932;SDS011;19444;50.518;10.870;2023-03-13T08:49:09;2.10;;;0.98;;
32932;SDS011;19444;50.518;10.870;2023-03-13T08:52:07;4.00;;;1.02;;
32932;SDS011;19444;50.518;10.870;2023-03-13T08:55:04;2.67;;;1.60;;
32932;SDS011;19444;50.518;10.870;2023-03-13T08:58:01;3.28;;;1.85;;
32932;SDS011;19444;50.518;10.870;2023-03-13T09:01:12;3.40;;;1.90;;
32932;SDS011;19444;50.518;10.870;2023-03-13T09:04:09;5.47;;;1.50;;
32932;SDS011;19444;50.518;10.870;2023-03-13T09:07:06;4.82;;;2.72;;
32932;SDS011;19444;50.518;10.870;2023-03-13T09:10:03;2.60;;;2.08;;
32932;SDS011;19444;50.518;10.870;2023-03-13T09:13:01;3.55;;;1.40;;
32932;SDS011;19444;50.518;10.870;2023-03-13T09:15:59;1.50;;;1.10;;
32932;SDS011;19444;50.518;10.870;2023-03-13T09:18:59;3.30;;;1.80;;
32932;SDS011;19444;50.518;10.870;2023-03-13T09:21:57;5.60;;;3.20;;
32932;SDS011;19444;50.518;10.870;2023-03-13T09:24:54;8.48;;;4.38;;
32932;SDS011;19444;50.518;10.870;2023-03-13T09:27:51;6.32;;;3.45;;
32932;SDS011;19444;50.518;10.870;2023-03-13T09:30:48;4.72;;;3.33;;
32932;SDS011;19444;50.518;10.870;2023-03-13T09:33:46;6.43;;;3.60;;
32932;SDS011;19444;50.518;10.870;2023-03-13T09:36:44;3.78;;;2.15;;
32932;SDS011;19444;50.518;10.870;2023-03-13T09:39:41;5.90;;;3.50;;
32932;SDS011;19444;50.518;10.870;2023-03-13T09:42:46;2.95;;;2.42;;
32932;SDS011;19444;50.518;10.870;2023-03-13T09:45:48;2.78;;;2.33;;
32932;SDS011;19444;50.518;10.870;2023-03-13T09:48:48;3.93;;;1.77;;
32932;SDS011;19444;50.518;10.870;2023-03-13T09:52:43;5.67;;;3.60;;
32932;SDS011;19444;50.518;10.870;2023-03-13T09:55:31;2.25;;;1.95;;
32932;SDS011;19444;50.518;10.870;2023-03-13T09:58:31;4.80;;;3.10;;
32932;SDS011;19444;50.518;10.870;2023-03-13T10:01:29;7.80;;;3.75;;
32932;SDS011;19444;50.518;10.870;2023-03-13T10:04:42;5.95;;;3.72;;
32932;SDS011;19444;50.518;10.870;2023-03-13T10:07:45;2.75;;;2.25;;
32932;SDS011;19444;50.518;10.870;2023-03-13T10:10:43;3.97;;;2.80;;
32932;SDS011;19444;50.518;10.870;2023-03-13T10:14:15;3.25;;;2.40;;
32932;SDS011;19444;50.518;10.870;2023-03-13T10:17:32;4.63;;;2.90;;
32932;SDS011;19444;50.518;10.870;2023-03-13T10:20:35;5.32;;;3.25;;
32932;SDS011;19444;50.518;10.870;2023-03-13T10:23:37;4.30;;;2.50;;
32932;SDS011;19444;50.518;10.870;2023-03-13T10:26:56;6.25;;;2.63;;
32932;SDS011;19444;50.518;10.870;2023-03-13T10:29:53;4.47;;;2.55;;
32932;SDS011;19444;50.518;10.870;2023-03-13T10:32:52;5.70;;;2.83;;
32932;SDS011;19444;50.518;10.870;2023-03-13T10:36:12;2.22;;;1.63;;
32932;SDS011;19444;50.518;10.870;2023-03-13T10:39:17;6.15;;;3.25;;
32932;SDS011;19444;50.518;10.870;2023-03-13T10:42:29;4.70;;;2.20;;
32932;SDS011;19444;50.518;10.870;2023-03-13T10:45:32;4.13;;;2.03;;
32932;SDS011;19444;50.518;10.870;2023-03-13T10:48:35;1.38;;;1.27;;
32932;SDS011;19444;50.518;10.870;2023-03-13T10:51:34;2.95;;;2.53;;
32932;SDS011;19444;50.518;10.870;2023-03-13T10:54:34;4.38;;;2.47;;
32932;SDS011;19444;50.518;10.870;2023-03-13T10:57:35;3.70;;;2.80;;
32932;SDS011;19444;50.518;10.870;2023-03-13T11:00:34;5.82;;;3.38;;
32932;SDS011;19444;50.518;10.870;2023-03-13T11:03:36;3.58;;;2.63;;
32932;SDS011;19444;50.518;10.870;2023-03-13T11:06:33;4.13;;;2.30;;
32932;SDS011;19444;50.518;10.870;2023-03-13T11:09:30;3.38;;;2.15;;
32932;SDS011;19444;50.518;10.870;2023-03-13T11:12:32;3.60;;;2.45;;
32932;SDS011;19444;50.518;10.870;2023-03-13T11:19:00;2.58;;;1.38;;
32932;SDS011;19444;50.518;10.870;2023-03-13T11:25:22;4.75;;;3.08;;
32932;SDS011;19444;50.518;10.870;2023-03-13T11:28:52;5.07;;;2.95;;
32932;SDS011;19444;50.518;10.870;2023-03-13T11:32:21;2.65;;;1.83;;
32932;SDS011;19444;50.518;10.870;2023-03-13T11:35:34;7.97;;;4.45;;
32932;SDS011;19444;50.518;10.870;2023-03-13T11:38:52;4.75;;;3.25;;
32932;SDS011;19444;50.518;10.870;2023-03-13T11:42:22;9.43;;;4.30;;
32932;SDS011;19444;50.518;10.870;2023-03-13T11:45:57;7.43;;;4.10;;
32932;SDS011;19444;50.518;10.870;2023-03-13T11:52:37;9.15;;;5.05;;
32932;SDS011;19444;50.518;10.870;2023-03-13T11:55:58;3.55;;;2.47;;
32932;SDS011;19444;50.518;10.870;2023-03-13T12:02:52;5.00;;;3.50;;
32932;SDS011;19444;50.518;10.870;2023-03-13T12:06:06;4.35;;;2.50;;
32932;SDS011;19444;50.518;10.870;2023-03-13T12:09:25;4.85;;;2.75;;
32932;SDS011;19444;50.518;10.870;2023-03-13T12:12:58;4.95;;;2.78;;
32932;SDS011;19444;50.518;10.870;2023-03-13T12:16:19;4.68;;;2.13;;
32932;SDS011;19444;50.518;10.870;2023-03-13T12:19:28;12.40;;;7.38;;
32932;SDS011;19444;50.518;10.870;2023-03-13T12:26:18;6.10;;;3.58;;
32932;SDS011;19444;50.518;10.870;2023-03-13T12:36:19;4.38;;;2.65;;
32932;SDS011;19444;50.518;10.870;2023-03-13T12:39:44;4.07;;;2.42;;
32932;SDS011;19444;50.518;10.870;2023-03-13T12:43:23;4.95;;;2.85;;
32932;SDS011;19444;50.518;10.870;2023-03-13T12:46:32;6.20;;;2.70;;
32932;SDS011;19444;50.518;10.870;2023-03-13T13:00:22;5.13;;;2.95;;
32932;SDS011;19444;50.518;10.870;2023-03-13T13:07:04;7.25;;;3.83;;
32932;SDS011;19444;50.518;10.870;2023-03-13T13:16:10;4.28;;;3.08;;
32932;SDS011;19444;50.518;10.870;2023-03-13T13:25:34;3.38;;;2.35;;
32932;SDS011;19444;50.518;10.870;2023-03-13T13:28:32;8.27;;;4.30;;
32932;SDS011;19444;50.518;10.870;2023-03-13T13:44:22;4.72;;;2.85;;
32932;SDS011;19444;50.518;10.870;2023-03-13T13:47:22;3.80;;;2.60;;
32932;SDS011;19444;50.518;10.870;2023-03-13T13:50:26;5.13;;;3.10;;
32932;SDS011;19444;50.518;10.870;2023-03-13T13:53:28;4.60;;;3.35;;
32932;SDS011;19444;50.518;10.870;2023-03-13T13:56:38;6.68;;;4.28;;
32932;SDS011;19444;50.518;10.870;2023-03-13T14:00:15;3.70;;;2.60;;
32932;SDS011;19444;50.518;10.870;2023-03-13T14:03:30;4.95;;;3.72;;
32932;SDS011;19444;50.518;10.870;2023-03-13T14:06:29;6.20;;;3.45;;
32932;SDS011;19444;50.518;10.870;2023-03-13T14:09:54;4.90;;;3.00;;
32932;SDS011;19444;50.518;10.870;2023-03-13T14:13:27;5.22;;;4.22;;
32932;SDS011;19444;50.518;10.870;2023-03-13T14:16:25;6.88;;;4.03;;
32932;SDS011;19444;50.518;10.870;2023-03-13T14:19:26;3.35;;;2.55;;
32932;SDS011;19444;50.518;10.870;2023-03-13T14:22:45;5.63;;;2.97;;
32932;SDS011;19444;50.518;10.870;2023-03-13T14:25:45;3.90;;;2.60;;
32932;SDS011;19444;50.518;10.870;2023-03-13T14:28:45;4.95;;;2.60;;
32932;SDS011;19444;50.518;10.870;2023-03-13T14:32:03;6.10;;;2.83;;
32932;SDS011;19444;50.518;10.870;2023-03-13T14:35:02;3.47;;;2.63;;
32932;SDS011;19444;50.518;10.870;2023-03-13T14:38:01;4.20;;;2.90;;
32932;SDS011;19444;50.518;10.870;2023-03-13T14:40:58;4.43;;;2.90;;
32932;SDS011;19444;50.518;10.870;2023-03-13T14:44:00;6.10;;;3.05;;
32932;SDS011;19444;50.518;10.870;2023-03-13T14:47:20;5.78;;;3.25;;
32932;SDS011;19444;50.518;10.870;2023-03-13T14:50:25;5.07;;;2.63;;
32932;SDS011;19444;50.518;10.870;2023-03-13T14:53:22;3.53;;;2.33;;
32932;SDS011;19444;50.518;10.870;2023-03-13T14:56:29;4.57;;;2.15;;
32932;SDS011;19444;50.518;10.870;2023-03-13T14:59:28;55.47;;;24.35;;
32932;SDS011;19444;50.518;10.870;2023-03-13T15:02:26;25.58;;;13.18;;
32932;SDS011;19444;50.518;10.870;2023-03-13T15:05:32;7.00;;;2.75;;
32932;SDS011;19444;50.518;10.870;2023-03-13T15:08:30;5.80;;;2.45;;
32932;SDS011;19444;50.518;10.870;2023-03-13T15:11:30;8.32;;;4.45;;
32932;SDS011;19444;50.518;10.870;2023-03-13T15:14:38;17.33;;;8.75;;
32932;SDS011;19444;50.518;10.870;2023-03-13T15:17:41;6.13;;;3.43;;
32932;SDS011;19444;50.518;10.870;2023-03-13T15:20:38;5.28;;;2.55;;
32932;SDS011;19444;50.518;10.870;2023-03-13T15:23:35;5.07;;;2.63;;
32932;SDS011;19444;50.518;10.870;2023-03-13T15:26:32;4.93;;;2.63;;
32932;SDS011;19444;50.518;10.870;2023-03-13T15:29:29;4.03;;;2.38;;
32932;SDS011;19444;50.518;10.870;2023-03-13T15:32:30;3.05;;;2.58;;
32932;SDS011;19444;50.518;10.870;2023-03-13T15:35:31;3.22;;;2.20;;
32932;SDS011;19444;50.518;10.870;2023-03-13T15:38:29;4.28;;;1.95;;
32932;SDS011;19444;50.518;10.870;2023-03-13T15:41:26;5.32;;;2.17;;
32932;SDS011;19444;50.518;10.870;2023-03-13T15:44:23;4.68;;;1.90;;
32932;SDS011;19444;50.518;10.870;2023-03-13T15:47:20;3.55;;;2.33;;
32932;SDS011;19444;50.518;10.870;2023-03-13T15:50:18;4.50;;;2.03;;
32932;SDS011;19444;50.518;10.870;2023-03-13T15:53:21;8.17;;;2.63;;
32932;SDS011;19444;50.518;10.870;2023-03-13T15:56:28;3.00;;;2.33;;
32932;SDS011;19444;50.518;10.870;2023-03-13T15:59:30;3.75;;;2.08;;
32932;SDS011;19444;50.518;10.870;2023-03-13T16:02:27;3.20;;;2.00;;
32932;SDS011;19444;50.518;10.870;2023-03-13T16:05:24;3.90;;;2.42;;
32932;SDS011;19444;50.518;10.870;2023-03-13T16:08:24;11.45;;;7.05;;
32932;SDS011;19444;50.518;10.870;2023-03-13T16:11:32;8.13;;;5.47;;
32932;SDS011;19444;50.518;10.870;2023-03-13T16:14:29;5.20;;;2.60;;
32932;SDS011;19444;50.518;10.870;2023-03-13T16:17:26;21.00;;;10.88;;
32932;SDS011;19444;50.518;10.870;2023-03-13T16:20:24;7.65;;;2.85;;
32932;SDS011;19444;50.518;10.870;2023-03-13T16:23:21;5.55;;;2.28;;
32932;SDS011;19444;50.518;10.870;2023-03-13T16:29:24;17.77;;;9.23;;
32932;SDS011;19444;50.518;10.870;2023-03-13T16:32:20;4.13;;;2.20;;
32932;SDS011;19444;50.518;10.870;2023-03-13T16:35:20;3.95;;;2.50;;
32932;SDS011;19444;50.518;10.870;2023-03-13T16:38:18;3.25;;;2.20;;
32932;SDS011;19444;50.518;10.870;2023-03-13T16:41:16;3.05;;;2.38;;
32932;SDS011;19444;50.518;10.870;2023-03-13T16:44:15;6.32;;;3.55;;
32932;SDS011;19444;50.518;10.870;2023-03-13T16:47:18;4.95;;;2.35;;
32932;SDS011;19444;50.518;10.870;2023-03-13T16:53:27;5.38;;;3.83;;
32932;SDS011;19444;50.518;10.870;2023-03-13T16:56:30;16.67;;;10.20;;
32932;SDS011;19444;50.518;10.870;2023-03-13T16:59:33;4.38;;;2.83;;
32932;SDS011;19444;50.518;10.870;2023-03-13T17:02:30;4.90;;;3.38;;
32932;SDS011;19444;50.518;10.870;2023-03-13T17:05:30;5.50;;;3.05;;
32932;SDS011;19444;50.518;10.870;2023-03-13T17:08:27;7.22;;;3.90;;
32932;SDS011;19444;50.518;10.870;2023-03-13T17:11:23;2.20;;;0.70;;
32932;SDS011;19444;50.518;10.870;2023-03-13T17:14:20;2.90;;;1.38;;
32932;SDS011;19444;50.518;10.870;2023-03-13T17:17:18;2.25;;;0.60;;
32932;SDS011;19444;50.518;10.870;2023-03-13T17:20:19;1.95;;;0.25;;
32932;SDS011;19444;50.518;10.870;2023-03-13T17:23:20;0.47;;;0.32;;
32932;SDS011;19444;50.518;10.870;2023-03-13T17:26:27;1.67;;;0.47;;
32932;SDS011;19444;50.518;10.870;2023-03-13T17:29:30;2.40;;;0.47;;
32932;SDS011;19444;50.518;10.870;2023-03-13T17:32:27;0.60;;;0.43;;
32932;SDS011;19444;50.518;10.870;2023-03-13T17:35:24;2.92;;;0.40;;
32932;SDS011;19444;50.518;10.870;2023-03-13T17:38:21;11.75;;;7.43;;
32932;SDS011;19444;50.518;10.870;2023-03-13T17:41:19;1.60;;;0.35;;
32932;SDS011;19444;50.518;10.870;2023-03-13T17:44:21;1.00;;;0.30;;
32932;SDS011;19444;50.518;10.870;2023-03-13T17:47:19;3.17;;;0.90;;
32932;SDS011;19444;50.518;10.870;2023-03-13T17:50:23;2.05;;;0.68;;
32932;SDS011;19444;50.518;10.870;2023-03-13T17:53:22;2.40;;;0.40;;
32932;SDS011;19444;50.518;10.870;2023-03-13T17:59:18;4.30;;;1.27;;
32932;SDS011;19444;50.518;10.870;2023-03-13T18:02:15;4.60;;;3.13;;
32932;SDS011;19444;50.518;10.870;2023-03-13T18:05:14;3.88;;;1.70;;
32932;SDS011;19444;50.518;10.870;2023-03-13T18:08:11;5.75;;;1.40;;
32932;SDS011;19444;50.518;10.870;2023-03-13T18:11:09;4.57;;;1.08;;
32932;SDS011;19444;50.518;10.870;2023-03-13T18:14:07;2.55;;;0.45;;
32932;SDS011;19444;50.518;10.870;2023-03-13T18:17:07;0.95;;;0.47;;
32932;SDS011;19444;50.518;10.870;2023-03-13T18:20:24;4.40;;;1.55;;
32932;SDS011;19444;50.518;10.870;2023-03-13T18:23:25;1.52;;;0.40;;
32932;SDS011;19444;50.518;10.870;2023-03-13T18:26:27;2.47;;;0.68;;
32932;SDS011;19444;50.518;10.870;2023-03-13T18:29:27;5.53;;;2.88;;
32932;SDS011;19444;50.518;10.870;2023-03-13T18:32:25;4.90;;;1.33;;
32932;SDS011;19444;50.518;10.870;2023-03-13T18:35:22;1.35;;;0.55;;
32932;SDS011;19444;50.518;10.870;2023-03-13T18:38:18;3.35;;;1.50;;
32932;SDS011;19444;50.518;10.870;2023-03-13T18:41:15;10.80;;;6.38;;
32932;SDS011;19444;50.518;10.870;2023-03-13T18:44:15;13.57;;;7.90;;
32932;SDS011;19444;50.518;10.870;2023-03-13T18:47:15;5.07;;;3.72;;
32932;SDS011;19444;50.518;10.870;2023-03-13T18:50:16;21.88;;;13.50;;
32932;SDS011;19444;50.518;10.870;2023-03-13T18:53:26;28.08;;;16.23;;
32932;SDS011;19444;50.518;10.870;2023-03-13T18:56:29;7.50;;;5.72;;
32932;SDS011;19444;50.518;10.870;2023-03-13T18:59:26;10.15;;;5.43;;
32932;SDS011;19444;50.518;10.870;2023-03-13T19:02:24;7.38;;;4.63;;